Vines Loop, Louisiana
Current Conditions -  °F | °C
As of 11:56 PM on Sunday 21 Dec 2014 (Local Time) from KAQV Reporting Station
Haze Haze  
Wind Chill: 50°   Ceiling: 200
Heat Index: 50°   Visibility: 1.7mi
Dew Point: 49°   Wind: 3mph
Humidity: 96%   Direction: NA
Pressure: 29.87"   Gusts: NA
Location:  31.6945°N, 93.716°W
Report Text: KAQV 220556Z AUTO VRB03KT 1 3/4SM BR OVC002 10/09 A2987 RMK AO2 SLP116 T01000094 10111 20100 401780011 58015 $
Loading
Personal Weather Stations






























Interactive Weather Map New forecast layout! Learn more

10-Day Weather Forecast

Advertisements
Track Severe Weather on mobile